Time;durP1;ratioP1;P1;durP2;ratioP2;P2;SDS_P1;SDS_P2;PMS_P1;PMS_P2;Temp;Humidity;BMP_temperature;BMP_pressure;BME280_temperature;BME280_humidity;BME280_pressure;Samples;Min_cycle;Max_cycle;Signal;HPM_P1;HPM_P2
2022/05/19 00:01:13;;;;;;;7.65;4.00;;;23.60;50.80;;;;;;4936189;29;20106;-71
2022/05/19 00:03:39;;;;;;;9.70;4.00;;;23.60;50.50;;;;;;4936165;29;20035;-71
2022/05/19 00:06:07;;;;;;;9.80;4.32;;;23.60;50.50;;;;;;4936211;29;20495;-69
2022/05/19 00:08:33;;;;;;;6.70;3.70;;;23.60;50.40;;;;;;4935980;29;20052;-71
2022/05/19 00:11:03;;;;;;;9.48;3.72;;;23.50;50.20;;;;;;4935952;29;20114;-70
2022/05/19 00:13:30;;;;;;;8.27;3.67;;;23.50;49.90;;;;;;4936089;29;20023;-70
2022/05/19 00:15:56;;;;;;;10.15;4.22;;;23.40;50.10;;;;;;4936006;29;20366;-71
2022/05/19 00:18:22;;;;;;;7.97;4.13;;;23.40;50.20;;;;;;4935936;29;20470;-71
2022/05/19 00:20:49;;;;;;;8.82;3.83;;;23.30;50.20;;;;;;4935565;29;20099;-70
2022/05/19 00:23:15;;;;;;;8.27;3.85;;;23.30;50.60;;;;;;4935777;29;20070;-71
2022/05/19 00:25:42;;;;;;;8.70;3.33;;;23.20;50.50;;;;;;4935666;29;20469;-71
2022/05/19 00:28:08;;;;;;;11.23;4.25;;;23.20;50.70;;;;;;4935683;29;20028;-70
2022/05/19 00:30:35;;;;;;;7.03;3.70;;;23.20;50.70;;;;;;4935767;29;20473;-71
2022/05/19 00:33:00;;;;;;;8.65;3.33;;;23.30;50.60;;;;;;4935806;29;20060;-71
2022/05/19 00:35:27;;;;;;;13.30;3.70;;;23.20;50.50;;;;;;4935861;29;20031;-70
2022/05/19 00:37:53;;;;;;;9.80;3.58;;;23.20;50.60;;;;;;4935360;29;20393;-71
2022/05/19 00:40:22;;;;;;;7.57;3.20;;;23.20;50.30;;;;;;4935434;29;20016;-70
2022/05/19 00:42:47;;;;;;;6.85;3.03;;;23.10;50.20;;;;;;4935514;29;20061;-70
2022/05/19 00:45:18;;;;;;;7.78;3.10;;;23.10;50.00;;;;;;4935643;29;20051;-71
2022/05/19 00:47:47;;;;;;;9.20;3.22;;;23.00;49.80;;;;;;4935348;29;20043;-71
2022/05/19 00:50:34;;;;;;;9.93;2.80;;;23.00;50.30;;;;;;4935675;29;20020;-69
2022/05/19 00:53:26;;;;;;;10.07;3.35;;;23.00;49.80;;;;;;4935563;29;20496;-71
2022/05/19 00:55:52;;;;;;;8.02;2.80;;;22.90;49.60;;;;;;4935563;29;20091;-70
2022/05/19 00:58:26;;;;;;;5.38;2.80;;;22.90;49.30;;;;;;4935202;29;20410;-70
2022/05/19 01:00:53;;;;;;;6.18;2.80;;;22.90;48.80;;;;;;4935273;29;20516;-71
2022/05/19 01:03:19;;;;;;;4.85;2.65;;;22.80;49.10;;;;;;4935370;29;20039;-71
2022/05/19 01:05:49;;;;;;;6.90;2.47;;;22.90;49.10;;;;;;4935449;29;20454;-70
2022/05/19 01:08:34;;;;;;;6.10;2.85;;;22.80;49.10;;;;;;4935401;29;20024;-71
2022/05/19 01:11:03;;;;;;;4.95;2.42;;;22.90;49.10;;;;;;4935108;29;20032;-71
2022/05/19 01:13:31;;;;;;;12.25;2.85;;;22.80;48.90;;;;;;4935319;29;20139;-71
2022/05/19 01:15:59;;;;;;;8.85;2.80;;;22.80;48.50;;;;;;4935337;29;20182;-70
2022/05/19 01:18:27;;;;;;;9.40;2.60;;;22.80;48.60;;;;;;4934962;29;20105;-71
2022/05/19 01:20:54;;;;;;;6.38;2.53;;;22.70;48.50;;;;;;4935172;29;20381;-71
2022/05/19 01:23:44;;;;;;;7.20;2.50;;;22.70;48.60;;;;;;4935386;29;20055;-71
2022/05/19 01:26:28;;;;;;;7.30;2.70;;;22.80;48.10;;;;;;4935012;29;20028;-70
2022/05/19 01:28:57;;;;;;;5.88;2.42;;;22.70;48.50;;;;;;4935274;29;20111;-70
2022/05/19 01:31:44;;;;;;;4.25;2.17;;;22.70;48.40;;;;;;4934916;29;20392;-71
2022/05/19 01:34:10;;;;;;;7.53;3.20;;;22.70;47.70;;;;;;4935215;29;20119;-70
2022/05/19 01:36:36;;;;;;;9.65;2.58;;;22.60;48.40;;;;;;4935013;29;20095;-71
2022/05/19 01:39:08;;;;;;;5.28;2.33;;;22.60;47.90;;;;;;4934714;29;20055;-69
2022/05/19 01:42:09;;;;;;;5.13;2.40;;;22.60;48.10;;;;;;4934029;29;20133;-71
2022/05/19 01:44:40;;;;;;;4.63;2.17;;;22.60;47.40;;;;;;4932042;29;20047;-70
2022/05/19 01:47:29;;;;;;;4.90;2.22;;;22.50;48.00;;;;;;4935114;29;20384;-71
2022/05/19 01:49:57;;;;;;;6.15;2.08;;;22.50;47.80;;;;;;4934869;29;20035;-71
2022/05/19 01:52:47;;;;;;;4.63;2.25;;;22.50;46.80;;;;;;4934837;29;20035;-69
2022/05/19 01:55:35;;;;;;;5.15;1.90;;;22.40;46.50;;;;;;4934743;29;20048;-70
2022/05/19 01:58:14;;;;;;;7.25;2.15;;;22.40;47.30;;;;;;4938296;29;20051;-70
2022/05/19 02:00:41;;;;;;;3.65;2.08;;;22.30;46.50;;;;;;4938066;29;20024;-70
2022/05/19 02:03:43;;;;;;;5.15;2.10;;;22.30;47.20;;;;;;4938144;29;20034;-70
2022/05/19 02:06:33;;;;;;;6.22;2.08;;;22.20;46.10;;;;;;4938500;29;20028;-71
2022/05/19 02:09:18;;;;;;;6.70;2.30;;;22.20;46.90;;;;;;4937021;29;20063;-69
2022/05/19 02:11:55;;;;;;;6.72;3.97;;;22.20;45.80;;;;;;4938967;29;20020;-71
2022/05/19 02:14:53;;;;;;;6.28;2.47;;;22.20;46.80;;;;;;4937882;29;20061;-70
2022/05/19 02:17:23;;;;;;;5.68;2.10;;;22.20;45.70;;;;;;4935691;29;20044;-70
2022/05/19 02:19:54;;;;;;;4.97;2.30;;;22.20;46.50;;;;;;4937854;29;20055;-70
2022/05/19 02:22:23;;;;;;;6.03;2.47;;;22.20;46.40;;;;;;4938035;29;20038;-70
2022/05/19 02:24:57;;;;;;;7.97;2.40;;;22.20;46.50;;;;;;4938000;29;20489;-69
2022/05/19 02:27:39;;;;;;;4.45;2.00;;;22.20;45.40;;;;;;4936475;29;20098;-70
2022/05/19 02:30:12;;;;;;;6.20;2.25;;;22.20;46.20;;;;;;4937705;29;20023;-70
2022/05/19 02:32:38;;;;;;;6.10;2.38;;;22.20;45.70;;;;;;4936373;29;20044;-71
2022/05/19 02:35:06;;;;;;;5.03;1.98;;;22.10;46.20;;;;;;4937607;29;20024;-71
2022/05/19 02:37:32;;;;;;;9.05;2.40;;;22.10;46.00;;;;;;4937604;29;20032;-71
2022/05/19 02:39:59;;;;;;;5.13;2.45;;;22.10;46.10;;;;;;4937391;29;20095;-70
2022/05/19 02:42:25;;;;;;;3.95;2.00;;;22.10;46.20;;;;;;4937624;29;20056;-70
2022/05/19 02:44:51;;;;;;;6.35;2.13;;;22.00;46.20;;;;;;4937419;29;20107;-69
2022/05/19 02:47:17;;;;;;;6.15;2.33;;;22.00;46.20;;;;;;4936210;29;20500;-70
2022/05/19 02:49:42;;;;;;;4.55;2.03;;;22.00;46.30;;;;;;4937126;29;20028;-70
2022/05/19 02:52:08;;;;;;;4.85;1.88;;;21.90;46.60;;;;;;4937344;29;20054;-72
2022/05/19 02:54:34;;;;;;;8.57;2.08;;;21.90;46.70;;;;;;4937063;29;20052;-70
2022/05/19 02:57:00;;;;;;;9.45;2.60;;;21.90;46.20;;;;;;4937331;29;20513;-70
2022/05/19 02:59:25;;;;;;;7.82;2.20;;;21.90;46.30;;;;;;4937386;29;20039;-70
2022/05/19 03:01:51;;;;;;;4.65;2.05;;;21.90;46.30;;;;;;4937051;29;20481;-70
2022/05/19 03:04:17;;;;;;;9.50;2.15;;;22.00;46.50;;;;;;4937270;29;20032;-71
2022/05/19 03:06:43;;;;;;;6.05;2.05;;;22.00;46.40;;;;;;4937014;29;20182;-70
2022/05/19 03:09:09;;;;;;;8.43;2.97;;;22.10;46.30;;;;;;4937147;29;20028;-71
2022/05/19 03:11:35;;;;;;;4.32;2.17;;;22.10;46.40;;;;;;4937217;29;20132;-70
2022/05/19 03:14:01;;;;;;;10.70;2.40;;;22.10;46.40;;;;;;4936932;29;20107;-71
2022/05/19 03:16:27;;;;;;;8.68;2.90;;;22.00;46.30;;;;;;4937078;29;20050;-70
2022/05/19 03:18:53;;;;;;;14.00;2.78;;;22.00;46.70;;;;;;4935616;29;20028;-70
2022/05/19 03:21:19;;;;;;;4.60;2.00;;;21.90;46.60;;;;;;4937038;29;20027;-71
2022/05/19 03:23:44;;;;;;;5.03;2.22;;;21.90;46.80;;;;;;4936897;29;20487;-71
2022/05/19 03:26:10;;;;;;;5.38;2.30;;;21.80;46.80;;;;;;4936838;29;20470;-70
2022/05/19 03:28:36;;;;;;;6.70;2.40;;;21.80;46.80;;;;;;4936835;29;20083;-70
2022/05/19 03:31:02;;;;;;;6.43;2.58;;;21.70;47.20;;;;;;4936862;29;20095;-70
2022/05/19 03:33:28;;;;;;;6.38;2.55;;;21.70;47.10;;;;;;4936769;29;20377;-70
2022/05/19 03:36:02;;;;;;;7.03;2.67;;;21.80;47.10;;;;;;4936723;29;20028;-70
2022/05/19 03:38:28;;;;;;;6.75;2.42;;;21.80;47.20;;;;;;4936373;29;20370;-70
2022/05/19 03:40:54;;;;;;;6.25;2.40;;;21.70;47.00;;;;;;4935063;29;20030;-70
2022/05/19 03:43:20;;;;;;;8.15;2.50;;;21.70;47.10;;;;;;4935199;29;20377;-70
2022/05/19 03:45:46;;;;;;;5.97;2.38;;;21.70;47.30;;;;;;4934945;29;20032;-72
2022/05/19 03:48:13;;;;;;;6.50;2.85;;;21.70;47.60;;;;;;4936197;29;20028;-70
2022/05/19 03:50:42;;;;;;;7.05;2.55;;;21.60;47.40;;;;;;4934992;29;20389;-71
2022/05/19 03:53:08;;;;;;;6.22;2.30;;;21.70;47.60;;;;;;4936144;29;20402;-70
2022/05/19 03:55:34;;;;;;;6.07;2.42;;;21.70;47.30;;;;;;4936280;29;20035;-71
2022/05/19 03:58:00;;;;;;;4.40;2.25;;;21.60;47.40;;;;;;4936268;29;20114;-70
2022/05/19 04:00:25;;;;;;;8.85;2.78;;;21.60;47.30;;;;;;4936081;29;20445;-71
2022/05/19 04:02:51;;;;;;;5.97;2.67;;;21.60;47.30;;;;;;4936151;29;20027;-70
2022/05/19 04:05:17;;;;;;;7.15;2.30;;;21.50;47.20;;;;;;4936582;29;20457;-69
2022/05/19 04:07:43;;;;;;;6.15;2.10;;;21.50;47.70;;;;;;4936277;29;20481;-71
2022/05/19 04:10:11;;;;;;;6.93;2.17;;;21.40;47.40;;;;;;4936173;29;20076;-70
2022/05/19 04:12:36;;;;;;;4.63;2.30;;;21.40;47.70;;;;;;4936014;29;20031;-69
2022/05/19 04:15:04;;;;;;;5.72;2.63;;;21.40;47.60;;;;;;4936195;29;20024;-70
2022/05/19 04:17:33;;;;;;;7.10;2.50;;;21.40;47.60;;;;;;4935900;29;20040;-70
2022/05/19 04:20:00;;;;;;;6.60;2.42;;;21.30;47.60;;;;;;4935173;29;20036;-70
2022/05/19 04:22:26;;;;;;;5.70;1.95;;;21.30;47.90;;;;;;4935803;29;20059;-71
2022/05/19 04:24:52;;;;;;;7.20;2.20;;;21.30;47.80;;;;;;4935965;29;20400;-71
2022/05/19 04:27:18;;;;;;;5.80;2.20;;;21.20;47.80;;;;;;4934298;29;20024;-71
2022/05/19 04:29:44;;;;;;;10.95;2.47;;;21.20;47.90;;;;;;4935624;29;20043;-71
2022/05/19 04:32:09;;;;;;;6.25;2.47;;;21.20;47.60;;;;;;4935959;29;20039;-70
2022/05/19 04:34:35;;;;;;;9.02;2.72;;;21.20;47.80;;;;;;4935690;29;20024;-71
2022/05/19 04:37:01;;;;;;;6.03;2.60;;;21.20;47.80;;;;;;4935719;29;20513;-70
2022/05/19 04:39:26;;;;;;;10.05;2.67;;;21.20;47.80;;;;;;4935804;29;20039;-71
2022/05/19 04:41:52;;;;;;;4.88;2.42;;;21.20;47.70;;;;;;4935884;29;20103;-70
2022/05/19 04:44:19;;;;;;;7.22;2.92;;;21.10;47.80;;;;;;4935835;29;20035;-71
2022/05/19 04:46:44;;;;;;;6.15;2.28;;;21.10;48.00;;;;;;4935914;29;20020;-71
2022/05/19 04:49:10;;;;;;;6.88;2.25;;;21.20;48.00;;;;;;4935436;29;20028;-71
2022/05/19 04:51:36;;;;;;;6.93;2.53;;;21.20;47.90;;;;;;4935328;29;20023;-70
2022/05/19 04:54:01;;;;;;;4.93;2.25;;;21.20;47.90;;;;;;4935366;29;20138;-73
2022/05/19 04:56:28;;;;;;;6.80;2.45;;;21.10;47.80;;;;;;4934158;29;20143;-71
2022/05/19 04:58:54;;;;;;;7.80;2.60;;;21.10;47.70;;;;;;4935576;29;20032;-71
2022/05/19 05:01:19;;;;;;;7.43;2.28;;;21.20;47.80;;;;;;4935677;29;20096;-72
2022/05/19 05:03:45;;;;;;;5.32;2.50;;;21.20;47.80;;;;;;4934068;29;20038;-71
2022/05/19 05:06:11;;;;;;;9.35;2.97;;;21.20;47.70;;;;;;4934094;29;20020;-70
2022/05/19 05:08:37;;;;;;;6.00;2.53;;;21.30;47.80;;;;;;4933871;29;20032;-71
2022/05/19 05:11:02;;;;;;;6.53;2.50;;;21.50;47.70;;;;;;4935158;29;20048;-71
2022/05/19 05:13:28;;;;;;;6.97;2.42;;;21.70;47.30;;;;;;4935337;29;20032;-70
2022/05/19 05:15:54;;;;;;;5.50;2.70;;;22.10;47.20;;;;;;4935159;29;20031;-72
2022/05/19 05:18:20;;;;;;;4.78;2.33;;;22.50;46.60;;;;;;4935257;29;20388;-70
2022/05/19 05:20:46;;;;;;;6.30;2.38;;;22.90;45.90;;;;;;4934897;29;20024;-71
2022/05/19 05:23:12;;;;;;;6.70;2.30;;;23.30;45.40;;;;;;4935068;29;20039;-71
2022/05/19 05:25:38;;;;;;;12.65;2.58;;;23.50;44.60;;;;;;4935111;29;20027;-74
2022/05/19 05:28:04;;;;;;;12.30;2.78;;;23.80;44.20;;;;;;4935062;29;20028;-75
2022/05/19 05:30:31;;;;;;;9.68;2.97;;;24.00;43.90;;;;;;4935198;29;20024;-74
2022/05/19 05:33:07;;;;;;;8.02;2.50;;;24.30;43.60;;;;;;4938472;29;20024;-71
2022/05/19 05:35:33;;;;;;;9.40;2.78;;;24.60;43.40;;;;;;4939242;29;20039;-71
2022/05/19 05:37:59;;;;;;;10.20;2.95;;;24.80;42.50;;;;;;4938694;29;20036;-71
2022/05/19 05:40:26;;;;;;;6.75;2.50;;;25.00;42.50;;;;;;4938769;29;20028;-73
2022/05/19 05:42:52;;;;;;;6.45;2.63;;;25.00;42.00;;;;;;4938587;29;20442;-73
2022/05/19 05:45:18;;;;;;;5.28;2.20;;;25.20;42.20;;;;;;4938735;29;20051;-71
2022/05/19 05:47:43;;;;;;;9.77;3.20;;;25.50;41.70;;;;;;4938619;29;20047;-72
2022/05/19 05:50:09;;;;;;;18.02;3.00;;;25.80;41.40;;;;;;4937103;29;20030;-70
2022/05/19 05:52:35;;;;;;;10.65;2.50;;;26.10;41.20;;;;;;4938577;29;20035;-70
2022/05/19 05:55:01;;;;;;;8.77;2.83;;;26.40;40.90;;;;;;4938487;29;20401;-69
2022/05/19 05:57:28;;;;;;;7.53;2.42;;;26.70;40.40;;;;;;4938354;29;20127;-70
2022/05/19 05:59:55;;;;;;;8.75;2.70;;;26.80;39.60;;;;;;4938416;29;20362;-73
2022/05/19 06:02:21;;;;;;;7.13;2.65;;;27.00;39.40;;;;;;4938410;29;20052;-71
2022/05/19 06:04:46;;;;;;;10.18;2.55;;;27.10;39.50;;;;;;4938382;29;20074;-74
2022/05/19 06:07:13;;;;;;;7.28;2.85;;;27.10;39.50;;;;;;4937068;29;20024;-71
2022/05/19 06:09:39;;;;;;;6.43;2.47;;;26.80;39.10;;;;;;4938238;29;20031;-71
2022/05/19 06:12:05;;;;;;;12.63;2.63;;;26.80;39.20;;;;;;4938187;29;20032;-69
2022/05/19 06:14:31;;;;;;;7.65;2.50;;;26.90;38.80;;;;;;4938197;29;20050;-71
2022/05/19 06:16:58;;;;;;;9.15;2.70;;;27.00;39.00;;;;;;4937670;29;20433;-70
2022/05/19 06:19:23;;;;;;;5.57;2.60;;;27.10;39.00;;;;;;4938259;29;20023;-73
2022/05/19 06:21:49;;;;;;;6.50;2.20;;;27.20;38.70;;;;;;4936737;29;20123;-71
2022/05/19 06:24:15;;;;;;;8.55;2.25;;;27.30;38.90;;;;;;4937950;29;20054;-72
2022/05/19 06:26:41;;;;;;;8.70;2.70;;;27.50;38.90;;;;;;4937714;29;20027;-70
2022/05/19 06:29:10;;;;;;;9.40;2.67;;;27.60;38.60;;;;;;4937570;29;20557;-70
2022/05/19 06:31:36;;;;;;;9.80;2.47;;;27.50;40.70;;;;;;4937534;29;20385;-70
2022/05/19 06:34:03;;;;;;;10.65;2.55;;;27.50;38.20;;;;;;4937557;29;20023;-70
2022/05/19 06:36:29;;;;;;;11.18;2.45;;;27.40;38.30;;;;;;4937466;29;20035;-69
2022/05/19 06:38:55;;;;;;;7.15;2.50;;;27.50;38.20;;;;;;4937485;29;20031;-70
2022/05/19 06:44:05;;;;;;;4.85;2.42;;;27.50;37.40;;;;;;4937298;29;20548;-70
2022/05/19 06:46:31;;;;;;;8.45;2.65;;;27.50;37.50;;;;;;4937305;29;20031;-69
2022/05/19 06:49:02;;;;;;;9.38;2.67;;;27.70;37.80;;;;;;4937205;29;20034;-70
2022/05/19 06:51:28;;;;;;;9.13;2.63;;;27.80;37.70;;;;;;4937027;29;20028;-69
2022/05/19 06:53:54;;;;;;;7.47;2.58;;;27.80;37.80;;;;;;4936825;29;20099;-70
2022/05/19 06:56:20;;;;;;;11.30;2.83;;;27.80;37.70;;;;;;4936756;29;20030;-68
2022/05/19 06:58:46;;;;;;;8.75;3.33;;;27.80;37.60;;;;;;4936386;29;20126;-69
2022/05/19 07:01:11;;;;;;;8.50;2.55;;;27.80;37.70;;;;;;4937191;29;20111;-70
2022/05/19 07:03:37;;;;;;;9.85;3.05;;;27.80;37.70;;;;;;4936767;29;20469;-69
2022/05/19 07:06:03;;;;;;;15.32;3.28;;;27.90;37.70;;;;;;4937021;29;20020;-69
2022/05/19 07:08:28;;;;;;;11.38;3.00;;;28.00;37.30;;;;;;4936857;29;20473;-69
2022/05/19 07:10:54;;;;;;;7.32;2.75;;;28.00;36.80;;;;;;4936517;29;20032;-73
2022/05/19 07:13:20;;;;;;;7.88;2.70;;;28.10;37.10;;;;;;4936742;29;20038;-72
2022/05/19 07:15:46;;;;;;;10.35;2.72;;;28.00;36.70;;;;;;4936632;29;20046;-73
2022/05/19 07:18:12;;;;;;;6.30;2.80;;;28.00;36.70;;;;;;4935200;29;20054;-74
2022/05/19 07:20:43;;;;;;;9.27;3.25;;;28.00;36.70;;;;;;4936572;29;20043;-73
2022/05/19 07:23:14;;;;;;;5.10;2.20;;;28.10;36.50;;;;;;4936637;29;20062;-73
2022/05/19 07:25:40;;;;;;;8.45;2.65;;;28.10;36.70;;;;;;4936357;29;20059;-74
2022/05/19 07:28:06;;;;;;;19.08;3.47;;;28.20;36.30;;;;;;4936490;29;20103;-74
2022/05/19 07:30:32;;;;;;;15.75;3.55;;;28.00;36.30;;;;;;4936397;29;20063;-72
2022/05/19 07:32:59;;;;;;;24.13;4.85;;;28.10;36.50;;;;;;4935306;29;20102;-74
2022/05/19 07:35:25;;;;;;;21.48;4.78;;;28.20;36.80;;;;;;4935977;29;20051;-74
2022/05/19 07:37:51;;;;;;;12.65;3.10;;;28.40;36.90;;;;;;4935903;29;20525;-73
2022/05/19 07:40:18;;;;;;;10.43;2.75;;;28.60;37.30;;;;;;4936163;29;20051;-69
2022/05/19 07:42:43;;;;;;;8.07;3.20;;;28.60;37.40;;;;;;4936323;29;20129;-70
2022/05/19 07:45:11;;;;;;;5.22;2.30;;;28.60;36.30;;;;;;4935960;29;20052;-70
2022/05/19 07:47:36;;;;;;;6.40;2.42;;;28.40;37.10;;;;;;4936143;29;20091;-70
2022/05/19 07:50:04;;;;;;;10.45;2.90;;;28.10;36.00;;;;;;4935788;29;20462;-70
2022/05/19 07:52:31;;;;;;;11.32;3.25;;;28.00;37.20;;;;;;4935973;29;20051;-71
2022/05/19 07:54:57;;;;;;;13.50;3.60;;;27.90;36.90;;;;;;4934817;29;20504;-72
2022/05/19 07:57:23;;;;;;;10.48;2.72;;;28.00;36.80;;;;;;4935854;29;20047;-71
2022/05/19 07:59:50;;;;;;;16.17;3.03;;;28.10;35.90;;;;;;4935779;29;20020;-72
2022/05/19 08:02:15;;;;;;;6.13;2.40;;;28.10;36.00;;;;;;4935837;29;20070;-72
2022/05/19 08:04:41;;;;;;;4.70;2.30;;;28.00;35.90;;;;;;4935685;29;20023;-71
2022/05/19 08:07:07;;;;;;;7.93;2.30;;;27.90;35.70;;;;;;4934279;29;20515;-72
2022/05/19 08:18:01;;;;;;;11.68;3.22;;;27.80;37.00;;;;;;4935429;29;20172;-73
2022/05/19 08:20:30;;;;;;;8.10;3.20;;;27.80;36.80;;;;;;4935349;29;20024;-73
2022/05/19 08:22:56;;;;;;;5.47;2.33;;;27.60;36.50;;;;;;4935436;29;20028;-70
2022/05/19 08:25:26;;;;;;;12.50;2.80;;;27.40;36.80;;;;;;4935445;29;20028;-72
2022/05/19 08:27:55;;;;;;;6.45;2.40;;;27.30;36.90;;;;;;4935359;29;20023;-73
2022/05/19 08:30:22;;;;;;;14.35;4.07;;;27.10;36.80;;;;;;4935096;29;20461;-73
2022/05/19 08:32:48;;;;;;;12.43;2.65;;;27.10;38.10;;;;;;4935518;29;20023;-72
2022/05/19 08:35:14;;;;;;;7.53;2.25;;;27.10;37.90;;;;;;4935160;29;20039;-71
2022/05/19 08:37:40;;;;;;;6.82;2.85;;;27.00;38.10;;;;;;4933768;29;20036;-72
2022/05/19 08:40:07;;;;;;;11.52;3.03;;;26.90;38.20;;;;;;4934980;29;20035;-72
2022/05/19 08:42:37;;;;;;;15.75;3.35;;;26.80;38.20;;;;;;4935145;29;20032;-71
2022/05/19 08:45:11;;;;;;;9.35;3.25;;;26.80;38.80;;;;;;4935468;29;20016;-73
2022/05/19 08:47:37;;;;;;;;;;;26.80;38.70;;;;;;4935784;29;20418;-71
2022/05/19 08:50:06;;;;;;;10.30;2.95;;;26.70;38.80;;;;;;4935402;29;19907;-72
2022/05/19 08:52:39;;;;;;;6.13;2.53;;;26.50;38.80;;;;;;4935354;29;20503;-74
2022/05/19 08:55:05;;;;;;;17.27;3.70;;;26.50;39.90;;;;;;4935100;29;20091;-74
2022/05/19 08:57:52;;;;;;;7.82;2.33;;;26.50;39.80;;;;;;4935416;29;20039;-71
2022/05/19 09:00:19;;;;;;;8.38;2.40;;;26.50;38.10;;;;;;4935363;29;20031;-72
2022/05/19 09:03:04;;;;;;;10.93;3.65;;;26.50;39.10;;;;;;4935373;29;20035;-72
2022/05/19 09:05:51;;;;;;;9.48;2.83;;;26.40;39.10;;;;;;4936409;29;20031;-73
2022/05/19 09:08:55;;;;;;;8.52;2.72;;;26.40;38.30;;;;;;4939495;29;20031;-73
2022/05/19 09:11:26;;;;;;;10.27;2.42;;;26.30;39.40;;;;;;4939408;29;20047;-72
2022/05/19 09:14:21;;;;;;;6.68;2.53;;;26.40;39.70;;;;;;4939202;29;20094;-72
2022/05/19 09:16:48;;;;;;;8.02;2.50;;;26.30;38.70;;;;;;4939224;29;20031;-73
2022/05/19 09:19:40;;;;;;;5.78;2.60;;;26.30;40.00;;;;;;4939239;29;20039;-73
2022/05/19 09:22:09;;;;;;;7.18;2.55;;;26.30;40.00;;;;;;4939089;29;20472;-72
2022/05/19 09:24:36;;;;;;;11.73;2.80;;;26.40;40.00;;;;;;4939631;29;20032;-74
2022/05/19 09:27:03;;;;;;;11.20;2.47;;;26.40;40.00;;;;;;4939127;29;20177;-72
2022/05/19 09:29:44;;;;;;;11.75;2.75;;;26.50;40.00;;;;;;4938763;29;20128;-71
2022/05/19 09:32:29;;;;;;;8.27;3.22;;;26.50;40.40;;;;;;4938911;29;20035;-73
2022/05/19 09:35:05;;;;;;;6.50;2.83;;;26.60;39.20;;;;;;4938930;29;20036;-72
2022/05/19 09:37:43;;;;;;;9.60;2.72;;;26.60;40.30;;;;;;4938935;29;20039;-74
2022/05/19 09:40:12;;;;;;;12.10;3.10;;;26.70;40.10;;;;;;4937330;29;20024;-72
2022/05/19 09:43:03;;;;;;;6.18;2.72;;;26.80;39.50;;;;;;4937738;29;20456;-72
2022/05/19 09:45:35;;;;;;;7.55;2.33;;;26.80;39.20;;;;;;4937736;29;20114;-71
2022/05/19 09:48:05;;;;;;;5.95;2.25;;;26.80;39.00;;;;;;4938896;29;20034;-74
2022/05/19 09:50:36;;;;;;;6.32;2.72;;;26.80;38.40;;;;;;4938671;29;20038;-72
2022/05/19 09:53:12;;;;;;;5.10;2.08;;;26.80;38.10;;;;;;4937082;29;20020;-74
2022/05/19 09:55:39;;;;;;;5.53;1.90;;;26.70;37.70;;;;;;4938624;29;20066;-73
2022/05/19 09:58:09;;;;;;;7.78;2.45;;;26.80;38.00;;;;;;4938159;29;20036;-70
2022/05/19 10:00:45;;;;;;;9.20;2.60;;;26.80;39.80;;;;;;4938236;29;20079;-73
2022/05/19 10:03:22;;;;;;;5.00;2.20;;;26.80;38.10;;;;;;4938262;29;20102;-73
2022/05/19 10:05:53;;;;;;;12.35;2.83;;;26.90;37.80;;;;;;4938130;29;20035;-72
2022/05/19 10:08:25;;;;;;;6.97;2.60;;;27.00;38.20;;;;;;4938005;29;20055;-71
2022/05/19 10:11:27;;;;;;;9.65;2.30;;;27.10;37.10;;;;;;4938123;29;20103;-73
2022/05/19 10:14:03;;;;;;;8.80;2.42;;;27.10;36.30;;;;;;4937972;29;20028;-70
2022/05/19 10:16:45;;;;;;;6.55;2.17;;;27.20;36.70;;;;;;4937587;29;20028;-69
2022/05/19 10:19:29;;;;;;;6.50;2.90;;;27.20;36.00;;;;;;4937874;29;20032;-70
2022/05/19 10:21:59;;;;;;;4.40;2.25;;;27.20;36.80;;;;;;4937663;29;20028;-69
2022/05/19 10:24:46;;;;;;;9.13;2.40;;;27.20;36.50;;;;;;4937787;29;20082;-69
2022/05/19 10:33:57;;;;;;;6.03;1.85;;;27.40;34.90;;;;;;4937645;29;20042;-69
2022/05/19 10:36:41;;;;;;;9.60;2.10;;;27.60;34.30;;;;;;4937607;29;20393;-72
2022/05/19 10:39:45;;;;;;;12.20;2.83;;;27.60;34.50;;;;;;4937259;29;20039;-71
2022/05/19 10:42:56;;;;;;;65.03;6.93;;;27.60;34.90;;;;;;4936666;29;20509;-74
2022/05/19 10:45:31;;;;;;;17.35;3.58;;;27.60;35.20;;;;;;4881597;29;20495;-73
2022/05/19 10:48:04;;;;;;;14.65;3.20;;;27.70;35.20;;;;;;4931529;29;20074;-69
2022/05/19 10:50:33;;;;;;;26.70;3.20;;;27.80;34.90;;;;;;4935878;29;20027;-71
2022/05/19 10:53:08;;;;;;;9.10;2.97;;;27.80;35.10;;;;;;4936820;29;20040;-69
2022/05/19 10:55:40;;;;;;;13.65;2.30;;;27.90;35.40;;;;;;4937214;29;20042;-69
2022/05/19 10:58:25;;;;;;;8.07;2.55;;;28.00;34.80;;;;;;4937286;29;20178;-70
2022/05/19 11:01:10;;;;;;;10.40;2.13;;;28.00;34.40;;;;;;4936803;29;20059;-72
2022/05/19 11:04:01;;;;;;;7.75;2.20;;;28.10;33.80;;;;;;4916655;29;20036;-70
2022/05/19 11:06:29;;;;;;;8.70;2.13;;;28.10;34.00;;;;;;4936912;29;20035;-69
2022/05/19 11:09:07;;;;;;;5.50;1.73;;;28.20;33.50;;;;;;4937073;29;20449;-69
2022/05/19 11:11:44;;;;;;;8.73;2.72;;;28.10;32.70;;;;;;4936920;29;20028;-68
2022/05/19 11:14:50;;;;;;;6.60;2.20;;;28.20;33.60;;;;;;4937056;29;20058;-66
2022/05/19 11:17:34;;;;;;;8.02;2.00;;;28.20;33.40;;;;;;4917524;29;20081;-71
2022/05/19 11:20:10;;;;;;;4.25;1.80;;;28.30;32.80;;;;;;4936761;29;20425;-68
2022/05/19 11:22:39;;;;;;;4.68;2.08;;;28.40;32.00;;;;;;4936512;29;20027;-67
2022/05/19 11:28:04;;;;;;;7.03;2.10;;;28.50;32.20;;;;;;4936460;29;20083;-67
2022/05/19 11:30:39;;;;;;;5.53;1.92;;;28.60;32.10;;;;;;4936214;29;20023;-68
2022/05/19 11:33:13;;;;;;;5.35;1.70;;;28.50;31.80;;;;;;4936860;29;20507;-70
2022/05/19 11:35:43;;;;;;;6.65;2.20;;;28.50;32.00;;;;;;4935046;29;20032;-67
2022/05/19 11:38:55;;;;;;;6.72;2.38;;;28.60;31.80;;;;;;4936102;29;20040;-67
2022/05/19 11:41:29;;;;;;;6.45;2.03;;;28.70;32.00;;;;;;4934879;29;20030;-69
2022/05/19 11:44:05;;;;;;;6.68;1.83;;;28.80;32.20;;;;;;4936251;29;20039;-71
2022/05/19 11:46:37;;;;;;;8.30;2.42;;;28.90;32.00;;;;;;4935859;29;20034;-68
2022/05/19 11:55:19;;;;;;;11.50;3.25;;;29.20;33.50;;;;;;4935931;29;20440;-70
2022/05/19 11:58:09;;;;;;;7.40;2.30;;;29.10;35.60;;;;;;4936398;29;20054;-69
2022/05/19 12:00:52;;;;;;;6.65;2.25;;;29.00;36.50;;;;;;4935700;29;20962;-71
2022/05/19 12:03:20;;;;;;;18.47;3.10;;;29.00;37.70;;;;;;4935965;29;20040;-71
2022/05/19 12:06:00;;;;;;;16.17;2.70;;;28.90;38.10;;;;;;4934489;29;20038;-70
2022/05/19 12:08:39;;;;;;;14.15;3.08;;;28.90;38.20;;;;;;4935958;29;20605;-69
2022/05/19 12:11:14;;;;;;;14.43;3.03;;;28.90;38.60;;;;;;4935713;29;20166;-71
2022/05/19 12:13:45;;;;;;;4.82;2.28;;;29.00;38.70;;;;;;4934986;29;20074;-69
2022/05/19 12:16:14;;;;;;;8.52;2.63;;;28.90;39.20;;;;;;4935886;29;20035;-70
2022/05/19 12:19:09;;;;;;;28.25;4.53;;;28.90;39.50;;;;;;4935527;29;20036;-70
2022/05/19 12:21:46;;;;;;;11.05;2.50;;;28.90;41.60;;;;;;4934652;29;20072;-69
2022/05/19 12:24:13;;;;;;;7.88;2.65;;;28.90;39.40;;;;;;4935551;29;20075;-71
2022/05/19 12:26:57;;;;;;;6.35;2.38;;;29.00;40.00;;;;;;4935740;29;20028;-75
2022/05/19 12:29:32;;;;;;;11.57;3.80;;;29.10;42.00;;;;;;4935765;29;20079;-75
2022/05/19 12:32:15;;;;;;;15.48;3.72;;;29.00;40.30;;;;;;4934495;29;20032;-74
2022/05/19 12:34:45;;;;;;;22.70;3.87;;;29.00;40.20;;;;;;4935494;29;20052;-74
2022/05/19 12:37:31;;;;;;;13.43;2.92;;;29.00;41.00;;;;;;4934017;29;20028;-79
2022/05/19 12:40:28;;;;;;;14.07;2.83;;;28.90;40.60;;;;;;4934947;29;20059;-73
2022/05/19 12:43:13;;;;;;;11.50;2.63;;;28.80;40.80;;;;;;4935480;29;20152;-77
2022/05/19 12:45:57;;;;;;;6.88;2.53;;;28.80;41.10;;;;;;4935692;29;20354;-76
2022/05/19 12:48:32;;;;;;;8.55;2.45;;;28.80;40.50;;;;;;4934325;29;20024;-75
2022/05/19 12:51:08;;;;;;;15.55;2.70;;;28.80;40.40;;;;;;4933747;29;20039;-74
2022/05/19 12:53:52;;;;;;;8.43;2.30;;;28.90;40.60;;;;;;4935006;29;20098;-73
2022/05/19 12:56:44;;;;;;;8.20;2.40;;;29.00;40.90;;;;;;4935703;29;20433;-74
2022/05/19 12:59:49;;;;;;;12.25;2.38;;;29.00;40.50;;;;;;4933750;29;20048;-73
2022/05/19 13:02:38;;;;;;;6.97;2.55;;;29.00;41.10;;;;;;4925895;29;20125;-76
2022/05/19 13:05:21;;;;;;;7.68;2.70;;;28.90;40.40;;;;;;4935194;29;20028;-75
2022/05/19 13:07:55;;;;;;;8.40;2.47;;;28.90;40.30;;;;;;4935085;29;20099;-75
2022/05/19 13:10:55;;;;;;;5.50;2.33;;;28.90;41.00;;;;;;4935232;29;20028;-74
2022/05/19 13:13:32;;;;;;;9.05;2.63;;;29.00;40.70;;;;;;4914002;29;20072;-76
2022/05/19 13:16:02;;;;;;;10.88;2.40;;;29.10;40.00;;;;;;4934157;29;20392;-75
2022/05/19 13:18:46;;;;;;;5.78;2.67;;;29.20;41.10;;;;;;4935092;29;20512;-75
2022/05/19 13:21:34;;;;;;;12.07;2.78;;;29.20;40.80;;;;;;4935275;29;20031;-72
2022/05/19 13:24:07;;;;;;;11.77;2.75;;;29.20;40.40;;;;;;4935137;29;20385;-74
2022/05/19 13:26:38;;;;;;;;;;;29.10;41.20;;;;;;4935808;29;20087;-76
2022/05/19 13:32:11;;;;;;;13.18;2.45;;;29.10;41.40;;;;;;4935425;29;20078;-77
2022/05/19 13:34:49;;;;;;;12.80;2.65;;;29.10;40.20;;;;;;4935174;29;20039;-77
2022/05/19 13:37:35;;;;;;;7.03;2.35;;;29.10;41.30;;;;;;4935222;29;20466;-80
2022/05/19 13:40:14;;;;;;;5.47;2.00;;;29.00;40.90;;;;;;4935248;29;20036;-75